Time;durP1;ratioP1;P1;durP2;ratioP2;P2;SDS_P1;SDS_P2;PMS_P1;PMS_P2;Temp;Humidity;BMP_temperature;BMP_pressure;BME280_temperature;BME280_humidity;BME280_pressure;Samples;Min_cycle;Max_cycle;Signal;HPM_P1;HPM_P2
2023/04/06 00:01:58;;;;;;;;;;;;;;;16.10;47.42;101287.88;7258416;19;152983;-56
2023/04/06 00:04:25;;;;;;;;;;;;;;;16.03;47.75;101283.38;7261734;19;153736;-55
2023/04/06 00:06:51;;;;;;;;;;;;;;;16.06;47.52;101284.81;7252788;19;153064;-55
2023/04/06 00:09:18;;;;;;;;;;;;;;;16.07;47.50;101274.50;7256254;19;154023;-55
2023/04/06 00:11:45;;;;;;;;;;;;;;;16.07;47.84;101272.56;7253146;19;153399;-56
2023/04/06 00:14:12;;;;;;;;;;;;;;;16.03;47.74;101274.22;7258297;19;154966;-55
2023/04/06 00:16:41;;;;;;;;;;;;;;;16.07;47.95;101269.78;7256324;19;153080;-56
2023/04/06 00:19:08;;;;;;;;;;;;;;;16.09;47.54;101263.91;7252086;19;154356;-55
2023/04/06 00:21:35;;;;;;;;;;;;;;;16.09;47.59;101266.69;7260941;19;152941;-55
2023/04/06 00:24:03;;;;;;;;;;;;;;;16.06;47.73;101254.16;7252997;19;153122;-55
2023/04/06 00:26:30;;;;;;;;;;;;;;;16.03;47.99;101260.28;7259315;19;153409;-55
2023/04/06 00:28:58;;;;;;;;;;;;;;;16.09;47.63;101258.31;7259743;19;152663;-55
2023/04/06 00:31:25;;;;;;;;;;;;;;;16.10;47.57;101254.44;7259889;19;153536;-55
2023/04/06 00:33:52;;;;;;;;;;;;;;;16.08;47.63;101240.75;7256787;19;154144;-55
2023/04/06 00:36:19;;;;;;;;;;;;;;;16.06;48.08;101245.78;7253031;19;153136;-55
2023/04/06 00:38:46;;;;;;;;;;;;;;;16.07;47.84;101247.47;7254254;19;154400;-55
2023/04/06 00:41:13;;;;;;;;;;;;;;;16.07;47.88;101249.41;7256350;19;153286;-55
2023/04/06 00:43:41;;;;;;;;;;;;;;;16.07;48.17;101243.84;7255376;19;153383;-55
2023/04/06 00:46:08;;;;;;;;;;;;;;;16.03;48.18;101230.44;7260229;19;154062;-55
2023/04/06 00:48:35;;;;;;;;;;;;;;;16.07;47.72;101233.53;7251980;19;153252;-54
2023/04/06 00:51:02;;;;;;;;;;;;;;;16.05;47.93;101230.16;7257555;19;153893;-55
2023/04/06 00:53:29;;;;;;;;;;;;;;;16.05;48.23;101227.38;7255693;19;153982;-56
2023/04/06 00:55:56;;;;;;;;;;;;;;;16.06;48.08;101228.22;7253011;19;154068;-55
2023/04/06 00:58:23;;;;;;;;;;;;;;;16.06;47.97;101222.66;7250980;19;153443;-55
2023/04/06 01:00:50;;;;;;;;;;;;;;;16.07;48.09;101210.41;7252768;19;153200;-56
2023/04/06 01:03:17;;;;;;;;;;;;;;;16.08;48.25;101207.31;7256012;19;154597;-56
2023/04/06 01:05:44;;;;;;;;;;;;;;;16.02;48.24;101208.44;7251093;19;153422;-54
2023/04/06 01:08:14;;;;;;;;;;;;;;;16.06;48.25;101208.72;7258866;19;153740;-54
2023/04/06 01:10:41;;;;;;;;;;;;;;;16.03;48.39;101198.97;7256708;19;154127;-55
2023/04/06 01:13:08;;;;;;;;;;;;;;;16.05;48.34;101198.69;7257678;19;154187;-55
2023/04/06 01:15:35;;;;;;;;;;;;;;;16.04;48.12;101192.25;7254990;19;153742;-55
2023/04/06 01:18:02;;;;;;;;;;;;;;;16.03;48.43;101193.41;7248769;19;154130;-55
2023/04/06 01:20:30;;;;;;;;;;;;;;;16.04;48.19;101189.47;7253993;19;153851;-55
2023/04/06 01:22:57;;;;;;;;;;;;;;;16.02;48.41;101180.56;7257964;19;153872;-55
2023/04/06 01:25:23;;;;;;;;;;;;;;;15.99;48.75;101176.34;7249825;19;155509;-55
2023/04/06 01:27:50;;;;;;;;;;;;;;;16.00;48.70;101172.47;7253395;19;153804;-55
2023/04/06 01:30:17;;;;;;;;;;;;;;;16.02;48.28;101177.78;7259637;19;154045;-55
2023/04/06 01:32:44;;;;;;;;;;;;;;;16.01;48.41;101176.94;7252224;19;153641;-56
2023/04/06 01:35:11;;;;;;;;;;;;;;;16.01;48.57;101170.53;7251963;19;153786;-55
2023/04/06 01:37:38;;;;;;;;;;;;;;;16.02;48.71;101163.84;7245427;19;155050;-56
2023/04/06 01:40:05;;;;;;;;;;;;;;;16.02;48.86;101161.06;7253624;19;153304;-56
2023/04/06 01:42:32;;;;;;;;;;;;;;;16.04;48.84;101156.03;7253931;19;154361;-56
2023/04/06 01:44:59;;;;;;;;;;;;;;;16.05;48.50;101145.72;7251669;19;153525;-56
2023/04/06 01:47:26;;;;;;;;;;;;;;;16.02;48.37;101141.56;7252184;19;154074;-56
2023/04/06 01:49:53;;;;;;;;;;;;;;;15.99;48.78;101142.06;7250546;19;154503;-56
2023/04/06 01:52:20;;;;;;;;;;;;;;;16.01;48.61;101146.28;7265070;19;153692;-56
2023/04/06 01:54:47;;;;;;;;;;;;;;;16.02;48.62;101142.38;7249853;19;154507;-55
2023/04/06 01:57:14;;;;;;;;;;;;;;;15.99;48.62;101134.56;7248286;19;154231;-56
2023/04/06 01:59:41;;;;;;;;;;;;;;;15.99;49.04;101130.94;7252498;19;154159;-56
2023/04/06 02:02:08;;;;;;;;;;;;;;;16.00;48.67;101127.03;7252970;19;153119;-56
2023/04/06 02:04:37;;;;;;;;;;;;;;;16.01;48.98;101126.78;7246947;19;154218;-56
2023/04/06 02:07:04;;;;;;;;;;;;;;;16.01;48.99;101123.16;7251084;19;152686;-56
2023/04/06 02:09:31;;;;;;;;;;;;;;;16.01;48.99;101120.38;7253041;19;155413;-56
2023/04/06 02:11:58;;;;;;;;;;;;;;;15.99;49.20;101115.06;7256279;19;153365;-56
2023/04/06 02:14:25;;;;;;;;;;;;;;;15.97;49.05;101119.25;7264253;19;153638;-56
2023/04/06 02:16:52;;;;;;;;;;;;;;;16.00;49.28;101118.69;7248685;19;154303;-56
2023/04/06 02:19:19;;;;;;;;;;;;;;;16.01;48.84;101109.22;7250504;19;152710;-56
2023/04/06 02:21:46;;;;;;;;;;;;;;;16.01;49.10;101112.00;7253979;19;153792;-56
2023/04/06 02:24:13;;;;;;;;;;;;;;;15.97;49.29;101099.72;7249100;19;153375;-56
2023/04/06 02:26:40;;;;;;;;;;;;;;;15.99;49.11;101105.84;7250775;19;153388;-56
2023/04/06 02:29:07;;;;;;;;;;;;;;;15.97;49.47;101108.94;7251318;19;154499;-56
2023/04/06 02:31:34;;;;;;;;;;;;;;;15.99;49.30;101097.50;7251302;19;152684;-56
2023/04/06 02:34:01;;;;;;;;;;;;;;;15.99;49.17;101100.28;7261251;19;153989;-55
2023/04/06 02:36:28;;;;;;;;;;;;;;;15.95;49.43;101096.38;7247530;19;153144;-54
2023/04/06 02:38:55;;;;;;;;;;;;;;;15.98;49.47;101088.31;7252083;19;153424;-55
2023/04/06 02:41:22;;;;;;;;;;;;;;;15.97;49.17;101088.59;7252122;19;153455;-55
2023/04/06 02:43:48;;;;;;;;;;;;;;;15.96;49.27;101084.13;7249474;19;154289;-56
2023/04/06 02:46:15;;;;;;;;;;;;;;;15.97;49.60;101077.44;7249386;19;153615;-55
2023/04/06 02:48:42;;;;;;;;;;;;;;;15.96;49.79;101072.97;7253383;19;153631;-55
2023/04/06 02:51:09;;;;;;;;;;;;;;;15.97;49.57;101078.28;7246233;19;154175;-55
2023/04/06 02:53:36;;;;;;;;;;;;;;;15.97;49.71;101075.50;7249081;19;152014;-55
2023/04/06 02:56:03;;;;;;;;;;;;;;;15.97;49.62;101071.88;7254470;19;153648;-55
2023/04/06 02:58:29;;;;;;;;;;;;;;;15.98;49.62;101062.41;7254170;19;152735;-55
2023/04/06 03:00:56;;;;;;;;;;;;;;;15.97;49.54;101067.13;7250375;19;153892;-55
2023/04/06 03:03:23;;;;;;;;;;;;;;;15.98;49.63;101060.47;7250171;19;153956;-55
2023/04/06 03:05:50;;;;;;;;;;;;;;;15.97;49.68;101057.94;7247554;19;152901;-55
2023/04/06 03:08:17;;;;;;;;;;;;;;;15.96;49.52;101057.09;7249144;19;153110;-55
2023/04/06 03:10:44;;;;;;;;;;;;;;;15.98;49.55;101048.47;7251381;19;153942;-55
2023/04/06 03:13:11;;;;;;;;;;;;;;;15.99;49.66;101050.13;7260957;19;153761;-55
2023/04/06 03:15:37;;;;;;;;;;;;;;;16.00;49.61;101052.63;7255695;19;153046;-55
2023/04/06 03:18:05;;;;;;;;;;;;;;;15.98;49.82;101043.75;7260216;19;156292;-55
2023/04/06 03:20:31;;;;;;;;;;;;;;;15.98;50.00;101040.94;7258653;19;154166;-55
2023/04/06 03:22:58;;;;;;;;;;;;;;;15.95;49.77;101049.00;7261482;19;155220;-56
2023/04/06 03:25:25;;;;;;;;;;;;;;;15.96;50.11;101045.09;7256816;19;154017;-55
2023/04/06 03:27:52;;;;;;;;;;;;;;;15.96;49.80;101040.38;7253624;19;153325;-54
2023/04/06 03:30:19;;;;;;;;;;;;;;;15.95;49.95;101043.44;7260074;19;153829;-58
2023/04/06 03:32:46;;;;;;;;;;;;;;;15.95;50.14;101047.06;7256445;19;153438;-55
2023/04/06 03:35:13;;;;;;;;;;;;;;;15.98;50.17;101045.69;7256451;19;153972;-55
2023/04/06 03:37:40;;;;;;;;;;;;;;;15.93;50.14;101035.38;7254317;19;153947;-55
2023/04/06 03:40:07;;;;;;;;;;;;;;;15.97;50.17;101039.28;7263648;19;153333;-55
2023/04/06 03:42:33;;;;;;;;;;;;;;;15.96;49.91;101018.09;7259003;19;153575;-55
2023/04/06 03:45:00;;;;;;;;;;;;;;;16.00;50.00;101022.00;7254965;19;152337;-55
2023/04/06 03:47:27;;;;;;;;;;;;;;;15.96;49.87;101022.81;7252559;19;153908;-55
2023/04/06 03:49:55;;;;;;;;;;;;;;;15.98;50.08;101018.66;7256404;19;154177;-55
2023/04/06 03:52:23;;;;;;;;;;;;;;;15.96;50.08;101018.09;7257933;19;153424;-55
2023/04/06 03:54:49;;;;;;;;;;;;;;;15.97;50.12;101024.50;7254232;19;152549;-55
2023/04/06 03:57:17;;;;;;;;;;;;;;;15.98;50.07;101009.47;7252767;19;155281;-55
2023/04/06 03:59:43;;;;;;;;;;;;;;;15.98;49.99;101010.31;7258617;19;152957;-55
2023/04/06 04:02:10;;;;;;;;;;;;;;;15.97;50.05;101007.78;7263564;19;154776;-55
2023/04/06 04:04:37;;;;;;;;;;;;;;;15.94;50.29;101019.50;7253851;19;154342;-55
2023/04/06 04:07:04;;;;;;;;;;;;;;;15.93;50.59;101013.06;7253298;19;152593;-55
2023/04/06 04:09:31;;;;;;;;;;;;;;;15.93;50.16;101013.06;7257560;19;153696;-55
2023/04/06 04:11:58;;;;;;;;;;;;;;;15.95;50.05;101004.41;7256078;19;154082;-55
2023/04/06 04:14:25;;;;;;;;;;;;;;;15.94;50.39;101005.56;7254368;19;153894;-55
2023/04/06 04:16:52;;;;;;;;;;;;;;;15.95;50.04;101004.41;7254689;19;155932;-55
2023/04/06 04:19:19;;;;;;;;;;;;;;;15.96;50.36;100998.59;7257233;19;152035;-55
2023/04/06 04:21:46;;;;;;;;;;;;;;;15.93;50.56;100995.53;7264051;19;154463;-55
2023/04/06 04:24:13;;;;;;;;;;;;;;;15.97;50.26;100991.91;7262067;19;154050;-55
2023/04/06 04:26:40;;;;;;;;;;;;;;;15.93;50.46;100998.31;7252488;19;154419;-55
2023/04/06 04:29:07;;;;;;;;;;;;;;;15.95;50.27;100994.13;7254979;19;154998;-55
2023/04/06 04:31:34;;;;;;;;;;;;;;;15.96;50.21;100984.66;7259675;19;153035;-55
2023/04/06 04:34:01;;;;;;;;;;;;;;;15.98;50.42;100984.38;7255859;19;154201;-56
2023/04/06 04:36:28;;;;;;;;;;;;;;;15.95;50.59;100996.06;7252101;19;153722;-55
2023/04/06 04:38:58;;;;;;;;;;;;;;;15.98;50.39;100987.16;7257305;19;153910;-55
2023/04/06 04:41:25;;;;;;;;;;;;;;;15.97;50.37;100982.69;7255201;19;153988;-55
2023/04/06 04:43:52;;;;;;;;;;;;;;;15.96;50.29;100997.75;7261952;19;153465;-55
2023/04/06 04:46:19;;;;;;;;;;;;;;;15.93;50.80;100985.22;7251896;19;154368;-55
2023/04/06 04:48:46;;;;;;;;;;;;;;;15.94;50.59;100991.63;7252564;19;152867;-55
2023/04/06 04:51:12;;;;;;;;;;;;;;;15.94;50.69;100994.41;7251933;19;153922;-55
2023/04/06 04:53:39;;;;;;;;;;;;;;;15.92;50.55;100991.88;7257656;19;153432;-55
2023/04/06 04:56:06;;;;;;;;;;;;;;;15.93;50.87;100993.56;7248804;19;153597;-55
2023/04/06 04:58:33;;;;;;;;;;;;;;;15.94;50.68;100994.41;7251929;19;152710;-55
2023/04/06 05:01:00;;;;;;;;;;;;;;;15.94;50.87;100988.84;7255656;19;154132;-55
2023/04/06 05:03:27;;;;;;;;;;;;;;;15.93;50.88;100995.53;7252345;19;154789;-55
2023/04/06 05:05:54;;;;;;;;;;;;;;;15.95;50.36;100990.50;7260201;19;153054;-56
2023/04/06 05:08:21;;;;;;;;;;;;;;;15.93;50.55;100982.44;7252614;19;154884;-55
2023/04/06 05:10:48;;;;;;;;;;;;;;;15.93;50.44;100985.22;7254299;19;153534;-55
2023/04/06 05:13:15;;;;;;;;;;;;;;;15.92;50.86;100985.47;7252571;19;153421;-55
2023/04/06 05:15:42;;;;;;;;;;;;;;;15.94;50.81;100977.69;7249966;19;154251;-55
2023/04/06 05:18:12;;;;;;;;;;;;;;;15.94;50.88;100981.28;7251177;19;154561;-55
2023/04/06 05:20:39;;;;;;;;;;;;;;;15.95;50.91;100976.56;7254085;19;153469;-55
2023/04/06 05:23:06;;;;;;;;;;;;;;;15.91;50.77;100973.50;7254363;19;153980;-55
2023/04/06 05:25:32;;;;;;;;;;;;;;;15.93;51.06;100968.50;7252479;19;152964;-55
2023/04/06 05:28:00;;;;;;;;;;;;;;;15.96;50.76;100975.44;7255885;19;155128;-55
2023/04/06 05:30:26;;;;;;;;;;;;;;;15.94;50.71;100960.97;7257596;19;153417;-55
2023/04/06 05:32:54;;;;;;;;;;;;;;;15.93;51.06;100962.94;7250558;19;153904;-55
2023/04/06 05:35:21;;;;;;;;;;;;;;;15.95;51.09;100968.19;7248183;19;154880;-55
2023/04/06 05:37:48;;;;;;;;;;;;;;;15.95;51.01;100969.03;7251846;19;152239;-55
2023/04/06 05:40:15;;;;;;;;;;;;;;;15.95;50.63;100968.19;7252633;19;153497;-55
2023/04/06 05:42:42;;;;;;;;;;;;;;;15.93;50.84;100967.66;7253538;19;154969;-56
2023/04/06 05:45:11;;;;;;;;;;;;;;;15.93;51.17;100960.13;7251082;19;151968;-55
2023/04/06 05:47:37;;;;;;;;;;;;;;;15.93;51.09;100967.66;7247952;19;153505;-55
2023/04/06 05:50:05;;;;;;;;;;;;;;;15.93;51.20;100959.31;7261638;19;153686;-55
2023/04/06 05:52:32;;;;;;;;;;;;;;;15.95;51.02;100957.91;7255907;19;153515;-55
2023/04/06 05:54:58;;;;;;;;;;;;;;;15.96;51.24;100961.53;7249130;19;154167;-55
2023/04/06 05:57:25;;;;;;;;;;;;;;;15.93;51.14;100967.66;7243810;19;154466;-55
2023/04/06 05:59:52;;;;;;;;;;;;;;;15.95;51.32;100962.63;7253992;19;152732;-55
2023/04/06 06:02:20;;;;;;;;;;;;;;;15.93;51.17;100956.50;7252556;19;156793;-55
2023/04/06 06:04:47;;;;;;;;;;;;;;;15.91;51.38;100956.78;7249277;19;152718;-56
2023/04/06 06:07:14;;;;;;;;;;;;;;;15.92;51.44;100961.25;7250498;19;153389;-58
2023/04/06 06:09:41;;;;;;;;;;;;;;;15.96;50.84;100944.81;7254393;19;153432;-55
2023/04/06 06:12:07;;;;;;;;;;;;;;;15.95;51.04;100951.47;7260055;19;153653;-55
2023/04/06 06:14:34;;;;;;;;;;;;;;;15.94;51.18;100956.22;7247696;19;153704;-55
2023/04/06 06:17:01;;;;;;;;;;;;;;;15.94;51.47;100958.19;7249270;19;152545;-55
2023/04/06 06:19:28;;;;;;;;;;;;;;;15.95;51.17;100959.84;7250496;19;153536;-55
2023/04/06 06:21:55;;;;;;;;;;;;;;;15.92;51.31;100969.59;7254708;19;153527;-55
2023/04/06 06:24:22;;;;;;;;;;;;;;;15.93;51.46;100965.72;7249058;19;154725;-54
2023/04/06 06:26:49;;;;;;;;;;;;;;;15.97;51.57;100977.13;7250476;19;154917;-56
2023/04/06 06:29:16;;;;;;;;;;;;;;;15.95;51.66;100971.81;7247577;19;154209;-55
2023/04/06 06:31:43;;;;;;;;;;;;;;;15.93;51.41;100964.88;7251420;19;152860;-55
2023/04/06 06:34:10;;;;;;;;;;;;;;;15.91;51.52;100965.13;7255556;19;152962;-55
2023/04/06 06:36:37;;;;;;;;;;;;;;;15.92;51.62;100966.81;7252050;19;153510;-55
2023/04/06 06:39:03;;;;;;;;;;;;;;;15.93;51.61;100962.94;7255401;19;153119;-55
2023/04/06 06:41:33;;;;;;;;;;;;;;;15.94;51.47;100966.56;7252334;19;153318;-55
2023/04/06 06:44:00;;;;;;;;;;;;;;;15.93;51.45;100962.09;7249094;19;154224;-56
2023/04/06 06:46:26;;;;;;;;;;;;;;;15.94;51.41;100966.56;7247958;19;152566;-55
2023/04/06 06:48:53;;;;;;;;;;;;;;;15.94;51.46;100961.78;7256871;19;155571;-55
2023/04/06 06:51:20;;;;;;;;;;;;;;;15.96;51.44;100961.53;7258571;19;151886;-55
2023/04/06 06:53:47;;;;;;;;;;;;;;;15.97;51.60;100954.84;7261553;19;153669;-55
2023/04/06 06:56:14;;;;;;;;;;;;;;;15.96;51.53;100948.44;7254665;19;151969;-55
2023/04/06 06:58:41;;;;;;;;;;;;;;;15.95;51.52;100951.47;7257181;19;153671;-55
2023/04/06 07:01:08;;;;;;;;;;;;;;;15.95;51.46;100945.91;7256970;19;153991;-55
2023/04/06 07:03:35;;;;;;;;;;;;;;;15.95;51.81;100930.03;7259061;19;153848;-54
2023/04/06 07:06:02;;;;;;;;;;;;;;;15.94;51.68;100936.72;7256023;19;153204;-55
2023/04/06 07:08:29;;;;;;;;;;;;;;;15.95;51.46;100948.69;7252098;19;155987;-55
2023/04/06 07:10:56;;;;;;;;;;;;;;;15.94;51.90;100963.75;7258762;19;153322;-55
2023/04/06 07:13:27;;;;;;;;;;;;;;;15.98;51.97;100959.31;7254984;19;154182;-55
2023/04/06 07:15:54;;;;;;;;;;;;;;;15.96;51.96;100962.34;7258624;19;153454;-56
2023/04/06 07:18:21;;;;;;;;;;;;;;;15.96;52.01;100961.53;7258344;19;154388;-55
2023/04/06 07:20:48;;;;;;;;;;;;;;;15.95;52.15;100955.09;7257857;19;153335;-55
2023/04/06 07:23:15;;;;;;;;;;;;;;;15.98;51.81;100948.16;7258556;19;153198;-55
2023/04/06 07:25:42;;;;;;;;;;;;;;;15.95;51.90;100957.06;7254110;19;154244;-55
2023/04/06 07:28:08;;;;;;;;;;;;;;;15.98;51.93;100956.53;7257777;19;153946;-56
2023/04/06 07:30:37;;;;;;;;;;;;;;;15.96;51.96;100962.34;7257667;19;152867;-54
2023/04/06 07:33:05;;;;;;;;;;;;;;;15.97;51.96;100961.25;7253442;19;154060;-55
2023/04/06 07:35:32;;;;;;;;;;;;;;;15.95;52.39;100963.47;7253485;19;153494;-55
2023/04/06 07:37:59;;;;;;;;;;;;;;;15.95;52.24;100963.47;7262777;19;154124;-55
2023/04/06 07:40:26;;;;;;;;;;;;;;;15.97;52.12;100969.63;7258427;19;154550;-55
2023/04/06 07:42:56;;;;;;;;;;;;;;;15.99;51.82;100975.72;7257583;19;152812;-55
2023/04/06 07:45:23;;;;;;;;;;;;;;;15.96;51.91;100967.09;7254778;19;154911;-60
2023/04/06 07:47:50;;;;;;;;;;;;;;;15.94;52.13;100977.69;7252151;19;154288;-56
2023/04/06 07:50:17;;;;;;;;;;;;;;;15.96;52.18;100981.03;7256089;19;152893;-55
2023/04/06 07:52:44;;;;;;;;;;;;;;;15.99;52.11;100975.72;7258413;19;154544;-55
2023/04/06 07:55:11;;;;;;;;;;;;;;;15.99;52.15;100978.50;7254235;19;154308;-56
2023/04/06 07:57:39;;;;;;;;;;;;;;;15.97;52.38;100983.53;7257509;19;152521;-55
2023/04/06 08:00:06;;;;;;;;;;;;;;;15.95;52.49;100990.50;7262428;19;153251;-55
2023/04/06 08:02:33;;;;;;;;;;;;;;;15.96;51.97;100984.66;7256040;19;154572;-55
2023/04/06 08:05:01;;;;;;;;;;;;;;;15.97;51.96;100994.69;7252141;19;153736;-55
2023/04/06 08:07:27;;;;;;;;;;;;;;;15.96;52.47;100992.16;7254005;19;154263;-55
2023/04/06 08:09:55;;;;;;;;;;;;;;;15.95;52.36;100987.69;7255429;19;154632;-55
2023/04/06 08:12:22;;;;;;;;;;;;;;;15.96;51.94;100990.22;7256044;19;154076;-55
2023/04/06 08:14:49;;;;;;;;;;;;;;;15.98;52.10;100993.59;7253048;19;153331;-55
2023/04/06 08:17:16;;;;;;;;;;;;;;;16.00;51.87;100999.69;7251925;19;153258;-55
2023/04/06 08:19:45;;;;;;;;;;;;;;;15.96;52.05;100992.16;7254921;19;152849;-55
2023/04/06 08:22:19;;;;;;;;;;;;;;;15.96;52.38;100998.59;7259684;19;154779;-55
2023/04/06 08:24:46;;;;;;;;;;;;;;;15.94;52.10;100995.22;7253477;19;153316;-55
2023/04/06 08:27:14;;;;;;;;;;;;;;;15.97;52.37;100994.69;7251142;19;153419;-55
2023/04/06 08:29:41;;;;;;;;;;;;;;;15.97;52.19;100991.91;7256552;19;153105;-55
2023/04/06 08:32:08;;;;;;;;;;;;;;;15.98;52.05;100985.22;7253613;19;155452;-55
2023/04/06 08:34:35;;;;;;;;;;;;;;;15.97;52.23;100983.53;7253703;19;153980;-55
2023/04/06 08:37:02;;;;;;;;;;;;;;;15.97;52.22;100988.28;7252538;19;152777;-55
2023/04/06 08:39:30;;;;;;;;;;;;;;;15.98;52.20;100984.38;7255445;19;153325;-55
2023/04/06 08:41:59;;;;;;;;;;;;;;;16.01;52.14;100983.81;7255040;19;154331;-55
2023/04/06 08:44:26;;;;;;;;;;;;;;;15.99;52.11;100992.44;7260606;19;153185;-55
2023/04/06 08:46:54;;;;;;;;;;;;;;;16.00;52.20;100982.13;7252613;19;154580;-55
2023/04/06 08:49:21;;;;;;;;;;;;;;;16.00;52.07;100991.34;7256245;19;153929;-55
2023/04/06 08:51:49;;;;;;;;;;;;;;;16.00;52.35;100977.41;7261320;19;154098;-55
2023/04/06 08:54:16;;;;;;;;;;;;;;;16.02;51.84;100985.50;7253204;19;153505;-55
2023/04/06 08:56:43;;;;;;;;;;;;;;;16.03;51.67;100985.19;7252895;19;153578;-55
2023/04/06 08:59:10;;;;;;;;;;;;;;;16.03;51.70;100990.78;7256231;19;153776;-55
2023/04/06 09:01:41;;;;;;;;;;;;;;;16.01;51.73;100994.97;7255917;19;153763;-55
2023/04/06 09:04:10;;;;;;;;;;;;;;;16.02;52.08;100991.06;7258839;19;152439;-55
2023/04/06 09:06:40;;;;;;;;;;;;;;;15.99;52.29;100998.03;7251784;19;153761;-55
2023/04/06 09:09:07;;;;;;;;;;;;;;;15.97;52.21;101002.22;7255830;19;153189;-55
2023/04/06 09:11:44;;;;;;;;;;;;;;;16.00;52.14;100996.06;7257717;19;153549;-55
2023/04/06 09:14:11;;;;;;;;;;;;;;;15.99;51.95;100999.97;7252421;19;154251;-55
2023/04/06 09:16:41;;;;;;;;;;;;;;;16.00;52.05;101004.44;7248809;19;154191;-55
2023/04/06 09:19:08;;;;;;;;;;;;;;;16.01;51.65;101006.94;7251470;19;152840;-55
2023/04/06 09:21:37;;;;;;;;;;;;;;;16.05;51.62;100998.88;7253183;19;154303;-55
2023/04/06 09:24:07;;;;;;;;;;;;;;;16.02;51.93;100997.50;7253990;19;154246;-55
2023/04/06 09:26:46;;;;;;;;;;;;;;;16.05;51.78;100996.06;7258061;19;152910;-55
2023/04/06 09:29:24;;;;;;;;;;;;;;;16.03;51.91;100995.53;7253205;19;153839;-55
2023/04/06 09:31:51;;;;;;;;;;;;;;;16.03;51.60;101004.72;7256576;19;153485;-55
2023/04/06 09:34:23;;;;;;;;;;;;;;;16.02;52.04;101000.28;7249615;19;155985;-55
2023/04/06 09:36:51;;;;;;;;;;;;;;;16.04;52.03;100994.41;7252336;19;153594;-55
2023/04/06 09:39:21;;;;;;;;;;;;;;;16.05;51.85;101009.16;7252900;19;153940;-55
2023/04/06 09:41:50;;;;;;;;;;;;;;;16.07;51.72;100993.88;7250669;19;155133;-54
2023/04/06 09:44:17;;;;;;;;;;;;;;;16.07;51.73;100996.66;7253263;19;153117;-55
2023/04/06 09:46:45;;;;;;;;;;;;;;;16.06;51.73;100994.97;7251196;19;153034;-55
2023/04/06 09:49:30;;;;;;;;;;;;;;;16.07;51.57;100993.03;7255961;19;153729;-55
2023/04/06 09:52:01;;;;;;;;;;;;;;;16.08;51.80;101001.09;7254338;19;153135;-55
2023/04/06 09:54:29;;;;;;;;;;;;;;;16.06;51.85;100989.41;7254141;19;154183;-55
2023/04/06 09:56:58;;;;;;;;;;;;;;;16.06;51.80;100997.75;7254302;19;153346;-55
2023/04/06 09:59:28;;;;;;;;;;;;;;;16.08;51.53;101001.09;7254236;19;152584;-55
2023/04/06 10:01:59;;;;;;;;;;;;;;;16.09;51.72;100999.16;7252076;19;154556;-56
2023/04/06 10:04:28;;;;;;;;;;;;;;;16.10;51.54;101003.59;7249710;19;153545;-56
2023/04/06 10:06:55;;;;;;;;;;;;;;;16.08;51.62;101012.25;7251253;19;154254;-55
2023/04/06 10:09:25;;;;;;;;;;;;;;;16.09;51.54;101005.56;7248868;19;154874;-56
2023/04/06 10:11:52;;;;;;;;;;;;;;;16.10;51.57;101006.41;7263746;19;153040;-55
2023/04/06 10:14:19;;;;;;;;;;;;;;;16.10;51.57;101003.59;7251882;19;155624;-55
2023/04/06 10:16:48;;;;;;;;;;;;;;;16.11;51.75;101000.56;7247084;19;153592;-55
2023/04/06 10:19:18;;;;;;;;;;;;;;;16.13;51.39;101009.47;7251084;19;153822;-56
2023/04/06 10:21:48;;;;;;;;;;;;;;;16.14;51.60;101021.44;7253096;19;153599;-55
2023/04/06 10:24:17;;;;;;;;;;;;;;;16.13;51.27;101008.63;7252306;19;153789;-55
2023/04/06 10:26:56;;;;;;;;;;;;;;;16.17;51.19;101009.75;7250008;19;153462;-56
2023/04/06 10:29:24;;;;;;;;;;;;;;;16.17;51.24;101007.78;7252128;19;154875;-55
2023/04/06 10:31:52;;;;;;;;;;;;;;;16.21;51.34;101019.25;7253137;19;153426;-55
2023/04/06 10:34:19;;;;;;;;;;;;;;;16.19;51.53;101016.72;7253651;19;153648;-55
2023/04/06 10:36:46;;;;;;;;;;;;;;;16.19;51.25;101019.50;7250805;19;154046;-55
2023/04/06 10:39:13;;;;;;;;;;;;;;;16.19;51.16;101019.50;7250632;19;155514;-55
2023/04/06 10:41:42;;;;;;;;;;;;;;;16.20;51.19;101017.56;7248486;19;154677;-55
2023/04/06 10:44:17;;;;;;;;;;;;;;;16.18;51.18;101015.03;7252397;19;154021;-55
2023/04/06 10:46:52;;;;;;;;;;;;;;;16.20;51.39;101023.97;7249733;19;153254;-55
2023/04/06 10:49:19;;;;;;;;;;;;;;;16.21;51.38;101022.03;7248801;19;154300;-55
2023/04/06 10:51:51;;;;;;;;;;;;;;;16.22;51.24;101037.63;7251164;19;152709;-55
2023/04/06 10:54:18;;;;;;;;;;;;;;;16.21;51.08;101036.81;7247521;19;153639;-55
2023/04/06 10:56:45;;;;;;;;;;;;;;;16.27;51.08;101034.84;7257681;19;152979;-55
2023/04/06 10:59:13;;;;;;;;;;;;;;;16.24;51.34;101046.56;7252476;19;153600;-55
2023/04/06 11:01:44;;;;;;;;;;;;;;;16.24;51.02;101047.41;7249142;19;153264;-55
2023/04/06 11:04:15;;;;;;;;;;;;;;;16.24;51.41;101046.56;7250632;19;152323;-54
2023/04/06 11:06:46;;;;;;;;;;;;;;;16.24;51.36;101050.19;7250677;19;154440;-55
2023/04/06 11:09:27;;;;;;;;;;;;;;;16.24;51.34;101040.97;7249263;19;152996;-55
2023/04/06 11:11:55;;;;;;;;;;;;;;;16.25;51.19;101032.34;7252066;19;154878;-55
2023/04/06 11:14:22;;;;;;;;;;;;;;;16.28;51.12;101034.56;7249854;19;153962;-55
2023/04/06 11:16:50;;;;;;;;;;;;;;;16.31;51.21;101035.94;7253036;19;154067;-55
2023/04/06 11:19:17;;;;;;;;;;;;;;;16.28;51.22;101039.31;7243860;19;154176;-55
2023/04/06 11:21:47;;;;;;;;;;;;;;;16.26;51.25;101042.34;7249494;19;155182;-55
2023/04/06 11:24:17;;;;;;;;;;;;;;;16.26;51.19;101044.34;7247441;19;153137;-55
2023/04/06 11:26:45;;;;;;;;;;;;;;;16.28;51.45;101036.50;7249200;19;153726;-55
2023/04/06 11:29:12;;;;;;;;;;;;;;;16.28;51.43;101053.25;7249495;19;154409;-55
2023/04/06 11:31:40;;;;;;;;;;;;;;;16.29;51.22;101049.34;7252330;19;153920;-55
2023/04/06 11:34:10;;;;;;;;;;;;;;;16.29;51.01;101040.97;7250477;19;155734;-55
2023/04/06 11:36:39;;;;;;;;;;;;;;;16.28;51.21;101047.66;7256185;19;154293;-55
2023/04/06 11:39:06;;;;;;;;;;;;;;;16.28;51.28;101056.88;7264281;19;152652;-56
2023/04/06 11:41:35;;;;;;;;;;;;;;;16.26;51.47;101052.69;7256416;19;152705;-55
2023/04/06 11:44:03;;;;;;;;;;;;;;;16.27;51.01;101065.50;7257370;19;153123;-54
2023/04/06 11:46:30;;;;;;;;;;;;;;;16.27;51.25;101059.94;7254773;19;154319;-55
2023/04/06 11:49:01;;;;;;;;;;;;;;;16.25;51.21;101051.84;7254420;19;157105;-55
2023/04/06 11:51:30;;;;;;;;;;;;;;;16.25;51.20;101065.81;7258303;19;152371;-54
2023/04/06 11:53:57;;;;;;;;;;;;;;;16.24;51.00;101058.53;7257525;19;153883;-55
2023/04/06 11:56:25;;;;;;;;;;;;;;;16.28;51.07;101064.41;7253762;19;154448;-55
2023/04/06 11:58:52;;;;;;;;;;;;;;;16.28;51.12;101061.59;7255535;19;153652;-55
2023/04/06 12:01:19;;;;;;;;;;;;;;;16.30;51.17;101062.19;7266025;19;155309;-55
2023/04/06 12:03:46;;;;;;;;;;;;;;;16.31;51.11;101063.81;7255613;19;152552;-55
2023/04/06 12:06:14;;;;;;;;;;;;;;;16.28;50.89;101069.97;7254343;19;154594;-55
2023/04/06 12:08:42;;;;;;;;;;;;;;;16.28;50.76;101068.03;7256197;19;154159;-55
2023/04/06 12:11:09;;;;;;;;;;;;;;;16.32;50.88;101062.72;7257187;19;154219;-55
2023/04/06 12:13:36;;;;;;;;;;;;;;;16.31;51.14;101061.03;7256546;19;152577;-55
2023/04/06 12:16:03;;;;;;;;;;;;;;;16.32;51.00;101071.94;7249185;19;154067;-55
2023/04/06 12:18:30;;;;;;;;;;;;;;;16.33;50.63;101070.81;7252537;19;156107;-55
2023/04/06 12:20:57;;;;;;;;;;;;;;;16.34;50.62;101061.34;7255316;19;153768;-55
2023/04/06 12:23:24;;;;;;;;;;;;;;;16.35;50.92;101063.00;7263846;19;153391;-54
2023/04/06 12:25:51;;;;;;;;;;;;;;;16.39;50.79;101057.72;7255288;19;153740;-55
2023/04/06 12:28:20;;;;;;;;;;;;;;;16.40;50.72;101062.16;7253483;19;153570;-55
2023/04/06 12:30:47;;;;;;;;;;;;;;;16.42;50.79;101054.38;7253814;19;152724;-55